TAF KHIB
AMD KHIB 082001Z 0820/0918 VRB03KT P6SM BKN015 BKN090 FM082100 VRB03KT P6SM SCT015 BKN090 FM090000 15005KT P6SM OVC080 FM090600 16010G18KT P6SM OVC070 WS020/18045KT FM091400 18009G20KT 3SM -SN BR OVC015=
METAR KHIB
WC KHIB
WS KHIB
WV KHIB